Time;durP1;ratioP1;P1;durP2;ratioP2;P2;SDS_P1;SDS_P2;PMS_P1;PMS_P2;Temp;Humidity;BMP_temperature;BMP_pressure;BME280_temperature;BME280_humidity;BME280_pressure;Samples;Min_cycle;Max_cycle;Signal;HPM_P1;HPM_P2
2022/01/08 00:00:00;;;;;;;8.68;6.57;;;;;;;;;;5050121;28;20118;-57
2022/01/08 00:02:26;;;;;;;7.40;6.28;;;;;;;;;;5050157;28;20504;-57
2022/01/08 00:04:52;;;;;;;8.10;6.53;;;;;;;;;;5049157;28;20049;-57
2022/01/08 00:07:19;;;;;;;7.78;6.28;;;;;;;;;;5050142;28;20048;-57
2022/01/08 00:09:45;;;;;;;8.07;6.28;;;;;;;;;;5050233;28;20049;-57
2022/01/08 00:12:12;;;;;;;8.60;6.60;;;;;;;;;;5048979;28;20045;-57
2022/01/08 00:14:40;;;;;;;8.38;6.65;;;;;;;;;;5050457;28;20106;-57
2022/01/08 00:17:06;;;;;;;10.25;6.50;;;;;;;;;;5049922;28;20052;-57
2022/01/08 00:19:32;;;;;;;7.35;6.07;;;;;;;;;;5050073;28;20053;-57
2022/01/08 00:21:59;;;;;;;7.82;6.40;;;;;;;;;;5050206;28;20052;-57
2022/01/08 00:24:25;;;;;;;8.70;6.63;;;;;;;;;;5050301;28;20045;-57
2022/01/08 00:26:51;;;;;;;8.65;6.40;;;;;;;;;;5048888;28;20045;-57
2022/01/08 00:29:17;;;;;;;10.07;6.82;;;;;;;;;;5050068;28;20045;-57
2022/01/08 00:31:45;;;;;;;7.55;6.32;;;;;;;;;;5049835;28;20462;-57
2022/01/08 00:34:11;;;;;;;8.30;6.13;;;;;;;;;;5049515;28;20049;-57
2022/01/08 00:36:37;;;;;;;10.13;7.47;;;;;;;;;;5051055;28;20045;-58
2022/01/08 00:39:04;;;;;;;9.07;6.70;;;;;;;;;;5052354;28;20049;-58
2022/01/08 00:41:30;;;;;;;8.63;6.68;;;;;;;;;;5053820;28;20090;-58
2022/01/08 00:43:56;;;;;;;7.53;6.57;;;;;;;;;;5053402;28;20049;-58
2022/01/08 00:46:22;;;;;;;10.73;6.82;;;;;;;;;;5052912;28;20393;-58
2022/01/08 00:48:50;;;;;;;7.50;6.55;;;;;;;;;;5053262;28;20102;-58
2022/01/08 00:51:16;;;;;;;8.95;6.95;;;;;;;;;;5053626;28;20064;-58
2022/01/08 00:53:42;;;;;;;7.60;6.78;;;;;;;;;;5052591;28;20057;-58
2022/01/08 00:56:09;;;;;;;10.48;6.70;;;;;;;;;;5053652;28;20106;-58
2022/01/08 00:58:35;;;;;;;9.30;6.65;;;;;;;;;;5053490;28;20150;-58
2022/01/08 01:01:01;;;;;;;7.80;6.18;;;;;;;;;;5052402;28;20490;-58
2022/01/08 01:03:27;;;;;;;8.13;6.70;;;;;;;;;;5053422;28;20098;-58
2022/01/08 01:05:55;;;;;;;10.45;6.97;;;;;;;;;;5053066;28;20095;-57
2022/01/08 01:08:21;;;;;;;9.63;6.72;;;;;;;;;;5052656;28;20451;-57
2022/01/08 01:10:47;;;;;;;7.60;6.88;;;;;;;;;;5053075;28;20091;-57
2022/01/08 01:13:14;;;;;;;8.73;6.97;;;;;;;;;;5053036;28;20053;-57
2022/01/08 01:15:40;;;;;;;8.15;7.35;;;;;;;;;;5052467;28;20115;-57
2022/01/08 01:18:08;;;;;;;8.18;6.90;;;;;;;;;;5052964;28;20605;-57
2022/01/08 01:20:34;;;;;;;8.00;7.20;;;;;;;;;;5053216;28;20404;-58
2022/01/08 01:23:08;;;;;;;8.80;7.00;;;;;;;;;;5052274;28;20064;-58
2022/01/08 01:25:38;;;;;;;7.60;6.80;;;;;;;;;;5052904;28;20488;-58
2022/01/08 01:28:16;;;;;;;8.43;7.18;;;;;;;;;;5052737;28;20041;-58
2022/01/08 01:41:04;;;;;;;10.23;7.53;;;;;;;;;;5052864;28;20107;-58
2022/01/08 01:42:12;;;;;;;8.02;7.22;;;;;;;;;;5032693;28;20049;-58
2022/01/08 01:47:29;;;;;;;8.63;7.40;;;;;;;;;;5032553;28;20127;-58
2022/01/08 01:49:55;;;;;;;8.63;6.85;;;;;;;;;;5031416;28;20496;-58
2022/01/08 01:52:22;;;;;;;11.63;7.45;;;;;;;;;;5032484;28;20041;-58
2022/01/08 01:54:49;;;;;;;8.52;7.50;;;;;;;;;;5032235;28;20378;-58
2022/01/08 01:57:16;;;;;;;8.77;7.35;;;;;;;;;;5031462;28;20484;-58
2022/01/08 01:59:43;;;;;;;8.23;7.10;;;;;;;;;;5039132;28;20438;-57
2022/01/08 02:02:09;;;;;;;11.93;7.97;;;;;;;;;;5052058;28;20040;-58
2022/01/08 02:04:36;;;;;;;9.82;7.57;;;;;;;;;;5050644;28;20055;-58
2022/01/08 02:07:05;;;;;;;8.70;7.03;;;;;;;;;;5049947;28;20049;-58
2022/01/08 02:09:33;;;;;;;9.32;7.68;;;;;;;;;;5050728;28;20799;-58
2022/01/08 02:12:03;;;;;;;8.73;7.20;;;;;;;;;;5050920;28;20128;-58
2022/01/08 02:14:30;;;;;;;8.52;7.25;;;;;;;;;;5051886;28;20072;-58
2022/01/08 02:16:57;;;;;;;11.18;7.57;;;;;;;;;;5051652;28;20049;-58
2022/01/08 02:19:23;;;;;;;7.80;7.00;;;;;;;;;;5050963;28;20484;-57
2022/01/08 02:21:55;;;;;;;9.43;7.15;;;;;;;;;;5051364;28;20102;-57
2022/01/08 02:24:21;;;;;;;9.38;7.43;;;;;;;;;;5051542;28;20053;-58
2022/01/08 02:26:48;;;;;;;8.90;7.82;;;;;;;;;;5050819;28;20045;-58
2022/01/08 02:29:15;;;;;;;9.40;7.78;;;;;;;;;;5051856;28;20041;-58
2022/01/08 02:31:42;;;;;;;8.80;7.88;;;;;;;;;;5050810;28;20628;-58
2022/01/08 02:34:08;;;;;;;10.45;7.95;;;;;;;;;;5051564;28;20045;-58
2022/01/08 02:36:35;;;;;;;9.73;7.07;;;;;;;;;;5051427;28;20049;-57
2022/01/08 02:39:03;;;;;;;8.00;7.20;;;;;;;;;;5050833;28;20080;-57
2022/01/08 02:41:29;;;;;;;10.77;6.93;;;;;;;;;;5051577;28;20142;-58
2022/01/08 02:43:55;;;;;;;8.27;7.13;;;;;;;;;;5051340;28;20123;-58
2022/01/08 02:46:22;;;;;;;7.90;6.60;;;;;;;;;;5050675;28;20045;-57
2022/01/08 02:48:48;;;;;;;10.18;7.85;;;;;;;;;;5051161;28;20546;-58
2022/01/08 02:51:14;;;;;;;8.05;7.10;;;;;;;;;;5051190;28;20075;-58
2022/01/08 02:53:41;;;;;;;9.18;7.65;;;;;;;;;;5050645;28;20048;-58
2022/01/08 02:56:08;;;;;;;10.88;8.07;;;;;;;;;;5051150;28;20480;-57
2022/01/08 02:58:34;;;;;;;7.43;6.68;;;;;;;;;;5051338;28;20049;-58
2022/01/08 03:01:01;;;;;;;8.82;7.13;;;;;;;;;;5049654;28;20057;-57
2022/01/08 03:03:27;;;;;;;8.32;7.25;;;;;;;;;;5050894;28;20045;-57
2022/01/08 03:05:53;;;;;;;10.50;7.57;;;;;;;;;;5050697;28;20098;-58
2022/01/08 03:08:20;;;;;;;9.52;7.55;;;;;;;;;;5050490;28;20079;-58
2022/01/08 03:10:49;;;;;;;9.10;6.80;;;;;;;;;;5050962;28;20049;-58
2022/01/08 03:13:16;;;;;;;9.38;7.10;;;;;;;;;;5050861;28;20458;-58
2022/01/08 03:15:43;;;;;;;9.18;7.72;;;;;;;;;;5050055;28;20484;-57
2022/01/08 03:18:09;;;;;;;8.73;7.40;;;;;;;;;;5050848;28;20045;-57
2022/01/08 03:20:43;;;;;;;9.82;7.30;;;;;;;;;;5050998;28;20049;-57
2022/01/08 03:23:14;;;;;;;9.32;7.50;;;;;;;;;;5050661;28;20102;-57
2022/01/08 03:25:40;;;;;;;11.38;7.60;;;;;;;;;;5051221;28;20470;-57
2022/01/08 03:28:07;;;;;;;7.93;7.13;;;;;;;;;;5049850;28;20907;-57
2022/01/08 03:30:34;;;;;;;7.90;7.15;;;;;;;;;;5051040;28;20423;-58
2022/01/08 03:33:01;;;;;;;9.52;7.72;;;;;;;;;;5050421;28;20049;-58
2022/01/08 03:35:27;;;;;;;8.65;7.47;;;;;;;;;;5050106;28;20576;-57
2022/01/08 03:37:53;;;;;;;9.75;7.50;;;;;;;;;;5050717;28;20485;-57
2022/01/08 03:40:19;;;;;;;8.15;6.80;;;;;;;;;;5050799;28;20496;-57
2022/01/08 03:42:46;;;;;;;7.60;6.78;;;;;;;;;;5049678;28;20107;-58
2022/01/08 03:45:12;;;;;;;8.27;6.63;;;;;;;;;;5050883;28;20049;-58
2022/01/08 03:48:06;;;;;;;7.68;6.88;;;;;;;;;;5050656;28;20045;-58
2022/01/08 03:50:32;;;;;;;8.75;7.20;;;;;;;;;;5050276;28;20568;-58
2022/01/08 03:52:58;;;;;;;8.30;6.68;;;;;;;;;;5050367;28;20049;-58
2022/01/08 03:55:25;;;;;;;10.23;7.38;;;;;;;;;;5050762;28;20045;-58
2022/01/08 03:57:51;;;;;;;9.23;7.13;;;;;;;;;;5049542;28;20758;-58
2022/01/08 04:00:17;;;;;;;9.35;7.15;;;;;;;;;;5050593;28;20102;-59
2022/01/08 04:02:45;;;;;;;8.82;6.80;;;;;;;;;;5050527;28;20052;-58
2022/01/08 04:05:11;;;;;;;8.50;7.45;;;;;;;;;;5049619;28;20061;-58
2022/01/08 04:07:37;;;;;;;9.15;7.00;;;;;;;;;;5050796;28;20045;-58
2022/01/08 04:10:04;;;;;;;10.35;7.35;;;;;;;;;;5049509;28;20045;-58
2022/01/08 04:12:37;;;;;;;8.23;6.72;;;;;;;;;;5054198;28;20064;-58
2022/01/08 04:15:08;;;;;;;8.07;7.05;;;;;;;;;;5054110;28;20048;-58
2022/01/08 04:17:34;;;;;;;8.77;6.80;;;;;;;;;;5053804;28;20048;-58
2022/01/08 04:20:02;;;;;;;7.75;6.75;;;;;;;;;;5054027;28;20045;-58
2022/01/08 04:22:28;;;;;;;8.35;6.72;;;;;;;;;;5054219;28;20049;-58
2022/01/08 04:24:58;;;;;;;9.88;6.65;;;;;;;;;;5052994;28;20057;-58
2022/01/08 04:27:26;;;;;;;9.07;7.35;;;;;;;;;;5053985;28;20443;-58
2022/01/08 04:29:52;;;;;;;10.02;6.82;;;;;;;;;;5053520;28;20045;-58
2022/01/08 04:32:19;;;;;;;10.02;7.25;;;;;;;;;;5053272;28;20459;-58
2022/01/08 04:34:45;;;;;;;7.68;6.85;;;;;;;;;;5053314;28;20048;-58
2022/01/08 04:37:12;;;;;;;8.43;6.60;;;;;;;;;;5053865;28;20044;-58
2022/01/08 04:39:39;;;;;;;7.53;6.60;;;;;;;;;;5052497;28;20049;-58
2022/01/08 04:42:05;;;;;;;7.28;6.43;;;;;;;;;;5053861;28;20060;-58
2022/01/08 04:44:31;;;;;;;8.98;6.80;;;;;;;;;;5053863;28;20099;-58
2022/01/08 04:46:58;;;;;;;6.82;6.00;;;;;;;;;;5052630;28;20041;-58
2022/01/08 04:49:24;;;;;;;7.72;6.38;;;;;;;;;;5053559;28;20045;-58
2022/01/08 04:51:50;;;;;;;8.02;6.97;;;;;;;;;;5053467;28;20060;-58
2022/01/08 04:54:19;;;;;;;7.72;6.55;;;;;;;;;;5052730;28;20084;-58
2022/01/08 04:56:45;;;;;;;9.43;6.75;;;;;;;;;;5053542;28;20139;-58
2022/01/08 04:59:12;;;;;;;7.03;6.32;;;;;;;;;;5053533;28;20099;-58
2022/01/08 05:01:38;;;;;;;7.38;6.35;;;;;;;;;;5053282;28;20048;-58
2022/01/08 05:04:04;;;;;;;10.38;6.60;;;;;;;;;;5053058;28;20098;-58
2022/01/08 05:06:31;;;;;;;8.93;6.93;;;;;;;;;;5052536;28;20068;-58
2022/01/08 05:08:57;;;;;;;7.03;6.32;;;;;;;;;;5053129;28;20049;-58
2022/01/08 05:11:28;;;;;;;7.90;6.68;;;;;;;;;;5053344;28;20455;-58
2022/01/08 05:13:54;;;;;;;10.20;6.63;;;;;;;;;;5051999;28;20444;-58
2022/01/08 05:16:22;;;;;;;7.78;5.82;;;;;;;;;;5053001;28;20048;-58
2022/01/08 05:18:50;;;;;;;9.35;7.50;;;;;;;;;;5052759;28;20412;-59
2022/01/08 05:21:22;;;;;;;7.03;6.20;;;;;;;;;;5052071;28;20084;-59
2022/01/08 05:23:48;;;;;;;7.45;6.20;;;;;;;;;;5052272;28;20453;-58
2022/01/08 05:26:15;;;;;;;10.25;6.30;;;;;;;;;;5052736;28;20045;-58
2022/01/08 05:28:44;;;;;;;8.70;6.32;;;;;;;;;;5052226;28;20052;-58
2022/01/08 05:31:10;;;;;;;8.80;6.68;;;;;;;;;;5052791;28;20133;-58
2022/01/08 05:33:36;;;;;;;7.28;6.47;;;;;;;;;;5052956;28;20052;-58
2022/01/08 05:36:03;;;;;;;8.65;6.70;;;;;;;;;;5051729;28;20110;-61
2022/01/08 05:38:29;;;;;;;9.77;6.63;;;;;;;;;;5052719;28;20481;-58
2022/01/08 05:40:55;;;;;;;8.07;7.22;;;;;;;;;;5052478;28;20041;-58
2022/01/08 05:43:21;;;;;;;8.07;6.50;;;;;;;;;;5052080;28;20053;-58
2022/01/08 05:45:49;;;;;;;8.52;6.45;;;;;;;;;;5052316;28;20086;-58
2022/01/08 05:48:15;;;;;;;6.97;6.28;;;;;;;;;;5052607;28;20049;-58
2022/01/08 05:50:41;;;;;;;9.00;7.00;;;;;;;;;;5051734;28;20041;-58
2022/01/08 05:53:08;;;;;;;7.20;6.38;;;;;;;;;;5052361;28;20049;-58
2022/01/08 05:55:34;;;;;;;8.55;6.50;;;;;;;;;;5051608;28;20075;-58
2022/01/08 05:58:00;;;;;;;9.77;6.78;;;;;;;;;;5052054;28;20049;-58
2022/01/08 06:00:26;;;;;;;8.88;6.90;;;;;;;;;;5052865;28;20746;-58
2022/01/08 06:02:54;;;;;;;8.85;6.47;;;;;;;;;;5051199;28;20044;-58
2022/01/08 06:05:20;;;;;;;8.15;6.80;;;;;;;;;;5052146;28;20064;-58
2022/01/08 06:07:46;;;;;;;8.93;6.60;;;;;;;;;;5051984;28;20045;-58
2022/01/08 06:10:13;;;;;;;8.32;6.38;;;;;;;;;;5051614;28;20118;-58
2022/01/08 06:12:39;;;;;;;8.13;6.15;;;;;;;;;;5052228;28;20049;-58
2022/01/08 06:15:05;;;;;;;7.47;6.47;;;;;;;;;;5051742;28;20061;-58
2022/01/08 06:17:31;;;;;;;8.13;6.60;;;;;;;;;;5051185;28;20041;-58
2022/01/08 06:19:59;;;;;;;6.97;6.28;;;;;;;;;;5052057;28;20045;-58
2022/01/08 06:22:25;;;;;;;10.77;6.60;;;;;;;;;;5051971;28;20045;-58
2022/01/08 06:24:51;;;;;;;6.90;6.13;;;;;;;;;;5051171;28;20045;-59
2022/01/08 06:27:18;;;;;;;10.38;6.50;;;;;;;;;;5051794;28;20396;-59
2022/01/08 06:29:44;;;;;;;8.13;6.25;;;;;;;;;;5051707;28;20049;-59
2022/01/08 06:32:10;;;;;;;8.60;6.60;;;;;;;;;;5050845;28;20049;-58
2022/01/08 06:34:37;;;;;;;8.50;6.32;;;;;;;;;;5051282;28;20429;-58
2022/01/08 06:37:04;;;;;;;7.70;6.20;;;;;;;;;;5051381;28;20545;-59
2022/01/08 06:39:31;;;;;;;7.97;6.32;;;;;;;;;;5050964;28;20053;-58
2022/01/08 06:41:57;;;;;;;9.25;6.10;;;;;;;;;;5051425;28;20102;-58
2022/01/08 06:44:23;;;;;;;9.00;6.40;;;;;;;;;;5051492;28;20045;-58
2022/01/08 06:46:49;;;;;;;7.75;5.80;;;;;;;;;;5050538;28;20071;-58
2022/01/08 06:49:15;;;;;;;9.20;6.00;;;;;;;;;;5051514;28;20053;-58
2022/01/08 06:51:42;;;;;;;9.85;6.35;;;;;;;;;;5051595;28;20049;-58
2022/01/08 06:54:09;;;;;;;7.72;5.63;;;;;;;;;;5050555;28;20511;-58
2022/01/08 06:56:36;;;;;;;8.55;6.00;;;;;;;;;;5051520;28;20094;-58
2022/01/08 06:59:02;;;;;;;9.50;5.90;;;;;;;;;;5050121;28;20052;-58
2022/01/08 07:01:28;;;;;;;7.65;5.25;;;;;;;;;;5051224;28;20609;-58
2022/01/08 07:03:55;;;;;;;7.47;5.40;;;;;;;;;;5050873;28;20122;-58
2022/01/08 07:06:22;;;;;;;8.23;5.45;;;;;;;;;;5050774;28;20044;-58
2022/01/08 07:08:48;;;;;;;6.43;5.20;;;;;;;;;;5051012;28;20049;-58
2022/01/08 07:11:16;;;;;;;6.40;5.18;;;;;;;;;;5051090;28;20072;-58
2022/01/08 07:13:42;;;;;;;6.88;5.78;;;;;;;;;;5049943;28;20057;-58
2022/01/08 07:16:09;;;;;;;8.13;5.18;;;;;;;;;;5051382;28;20049;-58
2022/01/08 07:18:35;;;;;;;8.38;5.30;;;;;;;;;;5051077;28;20049;-58
2022/01/08 07:21:01;;;;;;;6.57;5.10;;;;;;;;;;5050266;28;20057;-58
2022/01/08 07:23:27;;;;;;;7.13;5.55;;;;;;;;;;5050947;28;20474;-58
2022/01/08 07:25:53;;;;;;;6.40;5.05;;;;;;;;;;5050868;28;20098;-58
2022/01/08 07:28:21;;;;;;;7.50;4.97;;;;;;;;;;5050118;28;20075;-58
2022/01/08 07:30:47;;;;;;;7.93;5.00;;;;;;;;;;5050506;28;20476;-58
2022/01/08 07:33:13;;;;;;;6.10;4.80;;;;;;;;;;5051102;28;20045;-58
2022/01/08 07:35:40;;;;;;;9.25;5.50;;;;;;;;;;5050102;28;20488;-59
2022/01/08 07:38:07;;;;;;;7.97;4.55;;;;;;;;;;5050974;28;20045;-58
2022/01/08 07:40:33;;;;;;;11.52;4.60;;;;;;;;;;5052262;28;20492;-59
2022/01/08 07:42:59;;;;;;;7.82;5.00;;;;;;;;;;5049956;28;20049;-58
2022/01/08 07:45:27;;;;;;;6.93;4.63;;;;;;;;;;5051474;28;20049;-58
2022/01/08 07:47:53;;;;;;;8.15;4.95;;;;;;;;;;5054978;28;20049;-58
2022/01/08 07:50:19;;;;;;;9.43;4.13;;;;;;;;;;5054304;28;20099;-59
2022/01/08 07:52:45;;;;;;;7.95;4.93;;;;;;;;;;5054743;28;20071;-59
2022/01/08 07:55:12;;;;;;;6.00;4.72;;;;;;;;;;5053902;28;20103;-58
2022/01/08 07:57:39;;;;;;;8.88;4.75;;;;;;;;;;5054915;28;20099;-58
2022/01/08 08:00:06;;;;;;;9.48;4.57;;;;;;;;;;5054426;28;20041;-58
2022/01/08 08:02:33;;;;;;;7.60;4.93;;;;;;;;;;5054301;28;20045;-58
2022/01/08 08:04:59;;;;;;;7.07;4.88;;;;;;;;;;5054352;28;20048;-58
2022/01/08 08:07:26;;;;;;;6.22;4.30;;;;;;;;;;5054831;28;20044;-58
2022/01/08 08:09:52;;;;;;;6.47;4.40;;;;;;;;;;5053553;28;20041;-58
2022/01/08 08:12:19;;;;;;;5.88;4.32;;;;;;;;;;5054645;28;20048;-58
2022/01/08 08:14:45;;;;;;;6.30;4.60;;;;;;;;;;5054271;28;20056;-58
2022/01/08 08:17:11;;;;;;;6.85;4.50;;;;;;;;;;5053690;28;20053;-58
2022/01/08 08:19:38;;;;;;;6.53;4.43;;;;;;;;;;5054351;28;20519;-59
2022/01/08 08:22:05;;;;;;;5.57;4.18;;;;;;;;;;5054164;28;20045;-58
2022/01/08 08:24:31;;;;;;;8.45;4.43;;;;;;;;;;5053762;28;20114;-58
2022/01/08 08:26:57;;;;;;;7.20;4.40;;;;;;;;;;5053719;28;20049;-58
2022/01/08 08:29:23;;;;;;;8.88;4.60;;;;;;;;;;5054605;28;20047;-59
2022/01/08 08:31:50;;;;;;;7.57;4.20;;;;;;;;;;5053178;28;20446;-58
2022/01/08 08:34:16;;;;;;;7.57;4.50;;;;;;;;;;5054178;28;20056;-58
2022/01/08 08:36:43;;;;;;;6.90;4.43;;;;;;;;;;5053820;28;20102;-59
2022/01/08 08:39:09;;;;;;;8.25;4.70;;;;;;;;;;5053380;28;20476;-58
2022/01/08 08:41:36;;;;;;;7.40;4.70;;;;;;;;;;5054128;28;20053;-58
2022/01/08 08:44:02;;;;;;;7.32;4.43;;;;;;;;;;5052405;28;20053;-58
2022/01/08 08:46:28;;;;;;;8.13;5.28;;;;;;;;;;5053067;28;20045;-59
2022/01/08 08:48:54;;;;;;;7.22;4.72;;;;;;;;;;5053662;28;20499;-58
2022/01/08 08:51:20;;;;;;;9.25;4.80;;;;;;;;;;5052997;28;20090;-59
2022/01/08 08:53:48;;;;;;;9.80;4.78;;;;;;;;;;5053397;28;20049;-59
2022/01/08 08:56:14;;;;;;;6.50;4.75;;;;;;;;;;5053548;28;20405;-59
2022/01/08 08:58:40;;;;;;;9.35;5.40;;;;;;;;;;5052191;28;20369;-58
2022/01/08 09:01:07;;;;;;;6.32;4.85;;;;;;;;;;5053498;28;20480;-59
2022/01/08 09:03:33;;;;;;;8.70;5.07;;;;;;;;;;5053891;28;20049;-59
2022/01/08 09:05:59;;;;;;;8.20;5.32;;;;;;;;;;5052199;28;20053;-59
2022/01/08 09:08:26;;;;;;;8.73;5.65;;;;;;;;;;5053348;28;20048;-58
2022/01/08 09:10:53;;;;;;;7.97;5.40;;;;;;;;;;5053324;28;20098;-59
2022/01/08 09:13:20;;;;;;;9.65;5.50;;;;;;;;;;5052975;28;20478;-59
2022/01/08 09:15:46;;;;;;;8.40;6.10;;;;;;;;;;5052998;28;20084;-58
2022/01/08 09:18:13;;;;;;;7.18;5.38;;;;;;;;;;5053467;28;20091;-59
2022/01/08 09:20:39;;;;;;;10.30;5.90;;;;;;;;;;5053083;28;20044;-59
2022/01/08 09:23:06;;;;;;;8.52;5.90;;;;;;;;;;5052662;28;20041;-59
2022/01/08 09:25:32;;;;;;;9.07;5.93;;;;;;;;;;5053652;28;20044;-59
2022/01/08 09:27:59;;;;;;;8.80;6.05;;;;;;;;;;5052177;28;20075;-59
2022/01/08 09:30:26;;;;;;;11.55;5.88;;;;;;;;;;5053246;28;20094;-58
2022/01/08 09:32:52;;;;;;;11.48;5.93;;;;;;;;;;5052592;28;20045;-58
2022/01/08 09:35:18;;;;;;;9.00;5.53;;;;;;;;;;5052385;28;20049;-59
2022/01/08 09:37:45;;;;;;;10.25;6.00;;;;;;;;;;5052749;28;20562;-59
2022/01/08 09:40:15;;;;;;;8.68;5.95;;;;;;;;;;5053207;28;20048;-58
2022/01/08 09:42:42;;;;;;;8.60;5.47;;;;;;;;;;5052087;28;20102;-59
2022/01/08 09:45:10;;;;;;;10.27;5.97;;;;;;;;;;5053119;28;20098;-59
2022/01/08 09:47:36;;;;;;;9.45;6.35;;;;;;;;;;5051961;28;20053;-58
2022/01/08 09:50:03;;;;;;;9.48;6.60;;;;;;;;;;5052391;28;20122;-59
2022/01/08 09:52:29;;;;;;;9.80;6.45;;;;;;;;;;5052701;28;20819;-58
2022/01/08 09:54:55;;;;;;;8.52;6.03;;;;;;;;;;5051411;28;20571;-57
2022/01/08 09:57:22;;;;;;;9.93;6.25;;;;;;;;;;5052630;28;20131;-58
2022/01/08 09:59:48;;;;;;;9.43;6.28;;;;;;;;;;5052150;28;20487;-58
2022/01/08 10:02:20;;;;;;;10.95;6.00;;;;;;;;;;5051896;28;20049;-58
2022/01/08 10:04:46;;;;;;;8.55;5.75;;;;;;;;;;5051755;28;20056;-59
2022/01/08 10:07:16;;;;;;;10.57;6.30;;;;;;;;;;5052395;28;20502;-58
2022/01/08 10:09:59;;;;;;;9.93;6.40;;;;;;;;;;5051468;28;20045;-58
2022/01/08 10:12:35;;;;;;;8.10;6.07;;;;;;;;;;5052352;28;20115;-58
2022/01/08 10:17:48;;;;;;;7.97;5.93;;;;;;;;;;5051159;28;20648;-60
2022/01/08 10:20:27;;;;;;;8.23;5.57;;;;;;;;;;5052189;28;20099;-59
2022/01/08 10:22:57;;;;;;;8.75;5.75;;;;;;;;;;5051151;28;20107;-58
2022/01/08 10:25:24;;;;;;;8.90;6.47;;;;;;;;;;5052348;28;20057;-59
2022/01/08 10:27:50;;;;;;;8.35;6.53;;;;;;;;;;5051632;28;20103;-59
2022/01/08 10:30:23;;;;;;;9.15;6.35;;;;;;;;;;5051360;28;20041;-59
2022/01/08 10:32:56;;;;;;;11.32;6.68;;;;;;;;;;5051530;28;20045;-59
2022/01/08 10:35:45;;;;;;;10.73;6.82;;;;;;;;;;5051694;28;20049;-59
2022/01/08 10:38:11;;;;;;;9.02;6.30;;;;;;;;;;5051227;28;20061;-59
2022/01/08 10:40:37;;;;;;;9.00;6.55;;;;;;;;;;5051669;28;20480;-59
2022/01/08 10:43:17;;;;;;;10.70;6.93;;;;;;;;;;5051613;28;20049;-58
2022/01/08 10:45:43;;;;;;;9.27;6.20;;;;;;;;;;5050210;28;20642;-60
2022/01/08 10:48:11;;;;;;;8.57;6.28;;;;;;;;;;5050893;28;20048;-58
2022/01/08 10:50:37;;;;;;;9.25;6.70;;;;;;;;;;5051401;28;20052;-58
2022/01/08 10:53:04;;;;;;;9.00;6.80;;;;;;;;;;5050783;28;20111;-58
2022/01/08 10:55:31;;;;;;;10.80;6.80;;;;;;;;;;5051416;28;20056;-58
2022/01/08 10:57:57;;;;;;;10.70;6.85;;;;;;;;;;5050452;28;20580;-58
2022/01/08 11:00:30;;;;;;;9.95;6.80;;;;;;;;;;5051442;28;20103;-58
2022/01/08 11:02:56;;;;;;;10.02;7.00;;;;;;;;;;5051627;28;20107;-58
2022/01/08 11:05:23;;;;;;;9.68;6.80;;;;;;;;;;5035347;28;20083;-58
2022/01/08 11:07:50;;;;;;;8.25;6.72;;;;;;;;;;5032140;28;20485;-59
2022/01/08 11:10:19;;;;;;;9.98;7.03;;;;;;;;;;5031272;28;20424;-58
2022/01/08 11:12:47;;;;;;;8.98;7.35;;;;;;;;;;5030473;28;20045;-58
2022/01/08 11:15:24;;;;;;;11.60;7.07;;;;;;;;;;5031125;28;20553;-58
2022/01/08 11:17:51;;;;;;;9.02;7.35;;;;;;;;;;5031172;28;20049;-58
2022/01/08 11:20:18;;;;;;;11.25;7.55;;;;;;;;;;5030020;28;20072;-58
2022/01/08 11:22:50;;;;;;;11.38;7.70;;;;;;;;;;5030944;28;20049;-58
2022/01/08 11:25:17;;;;;;;10.30;7.38;;;;;;;;;;5031253;28;20050;-58
2022/01/08 11:27:53;;;;;;;10.13;7.57;;;;;;;;;;5030359;28;20107;-58
2022/01/08 11:30:20;;;;;;;13.35;7.63;;;;;;;;;;5031452;28;20075;-58
2022/01/08 11:32:47;;;;;;;10.77;7.78;;;;;;;;;;5047080;28;20095;-58
2022/01/08 11:35:14;;;;;;;10.23;6.93;;;;;;;;;;5050246;28;20049;-58
2022/01/08 11:37:46;;;;;;;11.15;7.35;;;;;;;;;;5051262;28;20056;-58
2022/01/08 11:40:14;;;;;;;10.60;7.78;;;;;;;;;;5050360;28;20041;-58
2022/01/08 11:42:40;;;;;;;10.55;7.70;;;;;;;;;;5051075;28;20048;-58
2022/01/08 11:45:08;;;;;;;10.45;7.57;;;;;;;;;;5050989;28;20048;-58
2022/01/08 11:47:34;;;;;;;11.32;8.50;;;;;;;;;;5050405;28;20300;-58
2022/01/08 11:50:01;;;;;;;14.00;8.25;;;;;;;;;;5050834;28;20049;-58
2022/01/08 11:52:28;;;;;;;11.15;7.80;;;;;;;;;;5050991;28;20049;-58
2022/01/08 11:54:54;;;;;;;11.13;8.75;;;;;;;;;;5049693;28;20476;-58
2022/01/08 11:57:23;;;;;;;10.48;7.90;;;;;;;;;;5050678;28;20400;-58
2022/01/08 11:59:50;;;;;;;9.77;8.20;;;;;;;;;;5050755;28;20048;-58
2022/01/08 12:02:16;;;;;;;13.13;8.90;;;;;;;;;;5050003;28;20048;-58
2022/01/08 12:04:44;;;;;;;12.35;8.55;;;;;;;;;;5050498;28;20057;-58
2022/01/08 12:07:33;;;;;;;12.25;9.23;;;;;;;;;;5050763;28;20122;-58
2022/01/08 12:10:04;;;;;;;10.73;8.60;;;;;;;;;;5050062;28;20048;-58
2022/01/08 12:12:43;;;;;;;13.07;8.80;;;;;;;;;;5050820;28;20051;-58
2022/01/08 12:15:09;;;;;;;13.25;8.85;;;;;;;;;;5050875;28;20049;-58
2022/01/08 12:17:51;;;;;;;14.88;9.15;;;;;;;;;;5049795;28;20049;-58
2022/01/08 12:20:38;;;;;;;11.82;8.88;;;;;;;;;;5051022;28;20049;-59
2022/01/08 12:23:22;;;;;;;11.75;8.05;;;;;;;;;;5049686;28;20045;-58
2022/01/08 12:25:49;;;;;;;12.85;8.98;;;;;;;;;;5050448;28;20071;-58
2022/01/08 12:28:39;;;;;;;13.43;8.95;;;;;;;;;;5050531;28;20049;-58
2022/01/08 12:31:24;;;;;;;12.38;9.05;;;;;;;;;;5049586;28;20049;-58
2022/01/08 12:34:05;;;;;;;13.10;9.83;;;;;;;;;;5054114;28;20052;-58
2022/01/08 12:36:33;;;;;;;14.77;8.82;;;;;;;;;;5052490;28;20049;-58
2022/01/08 12:39:04;;;;;;;12.63;9.13;;;;;;;;;;5053939;28;20041;-58
2022/01/08 12:41:30;;;;;;;14.18;9.45;;;;;;;;;;5054373;28;20048;-58
2022/01/08 12:44:17;;;;;;;13.82;9.32;;;;;;;;;;5053640;28;20084;-58
2022/01/08 12:46:44;;;;;;;12.73;9.13;;;;;;;;;;5053596;28;20107;-57
2022/01/08 12:49:14;;;;;;;13.02;8.57;;;;;;;;;;5054023;28;20045;-58
2022/01/08 12:51:57;;;;;;;13.15;9.30;;;;;;;;;;5053462;28;20407;-58
2022/01/08 12:54:23;;;;;;;11.98;9.45;;;;;;;;;;5034182;28;20049;-58
2022/01/08 12:56:50;;;;;;;13.27;8.70;;;;;;;;;;5053406;28;20506;-58
2022/01/08 12:59:18;;;;;;;12.63;8.52;;;;;;;;;;5053041;28;20110;-58
2022/01/08 13:01:46;;;;;;;13.90;9.52;;;;;;;;;;5053366;28;20049;-58
2022/01/08 13:04:16;;;;;;;12.02;9.07;;;;;;;;;;5053666;28;20056;-58
2022/01/08 13:06:42;;;;;;;11.40;8.30;;;;;;;;;;5052712;28;20553;-58
2022/01/08 13:09:09;;;;;;;11.68;8.93;;;;;;;;;;5053657;28;20122;-58
2022/01/08 13:11:36;;;;;;;11.15;8.30;;;;;;;;;;5052825;28;20102;-58
2022/01/08 13:14:03;;;;;;;10.77;8.18;;;;;;;;;;5053192;28;20114;-59
2022/01/08 13:16:32;;;;;;;11.45;8.85;;;;;;;;;;5053401;28;20057;-58
2022/01/08 13:19:00;;;;;;;13.18;8.27;;;;;;;;;;5052370;28;20045;-59
2022/01/08 13:21:29;;;;;;;13.38;9.57;;;;;;;;;;5053625;28;20056;-58
2022/01/08 13:23:56;;;;;;;10.90;8.15;;;;;;;;;;5052918;28;20202;-58
2022/01/08 13:26:29;;;;;;;12.65;8.73;;;;;;;;;;5052619;28;20442;-58
2022/01/08 13:28:55;;;;;;;13.30;8.20;;;;;;;;;;5052641;28;20098;-58
2022/01/08 13:31:38;;;;;;;10.90;8.30;;;;;;;;;;5053407;28;20450;-58
2022/01/08 13:34:05;;;;;;;10.68;8.27;;;;;;;;;;5052094;28;20467;-59
2022/01/08 13:36:31;;;;;;;12.95;8.63;;;;;;;;;;5053193;28;20099;-58
2022/01/08 13:38:58;;;;;;;8.95;7.13;;;;;;;;;;5052426;28;20484;-58
2022/01/08 13:41:24;;;;;;;12.75;8.00;;;;;;;;;;5052144;28;20045;-58
2022/01/08 13:43:53;;;;;;;11.48;8.05;;;;;;;;;;5052231;28;20045;-58
2022/01/08 13:46:20;;;;;;;9.20;7.00;;;;;;;;;;5053061;28;20052;-58
2022/01/08 13:48:46;;;;;;;9.20;6.85;;;;;;;;;;5051745;28;20049;-58
2022/01/08 13:51:15;;;;;;;8.85;6.70;;;;;;;;;;5052778;28;20496;-58
2022/01/08 13:53:42;;;;;;;11.48;7.30;;;;;;;;;;5052469;28;20045;-58
2022/01/08 13:56:08;;;;;;;9.18;6.93;;;;;;;;;;5051926;28;20056;-58
2022/01/08 13:58:35;;;;;;;10.05;7.15;;;;;;;;;;5052801;28;20099;-58
2022/01/08 14:01:03;;;;;;;9.45;6.57;;;;;;;;;;5051846;28;20044;-58
2022/01/08 14:03:30;;;;;;;10.23;6.63;;;;;;;;;;5052941;28;20131;-58
2022/01/08 14:05:57;;;;;;;9.57;6.65;;;;;;;;;;5051873;28;20057;-58
2022/01/08 14:08:24;;;;;;;9.63;6.70;;;;;;;;;;5051633;28;20044;-58
2022/01/08 14:10:53;;;;;;;9.80;6.03;;;;;;;;;;5052160;28;20095;-58
2022/01/08 14:13:20;;;;;;;9.05;6.45;;;;;;;;;;5052596;28;20488;-58
2022/01/08 14:15:49;;;;;;;6.88;5.20;;;;;;;;;;5051136;28;20048;-58
2022/01/08 14:18:17;;;;;;;7.25;5.70;;;;;;;;;;5052294;28;20048;-58
2022/01/08 14:20:43;;;;;;;6.55;5.40;;;;;;;;;;5051643;28;20488;-58
2022/01/08 14:23:10;;;;;;;8.20;5.40;;;;;;;;;;5051418;28;20049;-58
2022/01/08 14:25:38;;;;;;;8.45;5.35;;;;;;;;;;5052179;28;20045;-58
2022/01/08 14:28:14;;;;;;;7.45;5.35;;;;;;;;;;5051861;28;20056;-58
2022/01/08 14:30:40;;;;;;;;;;;;;;;;;;5051874;28;20049;-58
2022/01/08 14:33:06;;;;;;;8.50;5.05;;;;;;;;;;5052197;28;19920;-58
2022/01/08 14:35:33;;;;;;;5.80;4.47;;;;;;;;;;5051683;28;20052;-58
2022/01/08 14:38:01;;;;;;;6.07;4.68;;;;;;;;;;5051034;28;20111;-58
2022/01/08 14:40:28;;;;;;;5.45;4.57;;;;;;;;;;5051754;28;20102;-58
2022/01/08 14:42:59;;;;;;;6.28;3.90;;;;;;;;;;5051610;28;20048;-58
2022/01/08 14:45:27;;;;;;;5.45;4.05;;;;;;;;;;5051681;28;20110;-58
2022/01/08 14:47:56;;;;;;;5.18;3.97;;;;;;;;;;5051428;28;20044;-58
2022/01/08 14:50:23;;;;;;;5.70;3.33;;;;;;;;;;5051046;28;20140;-58
2022/01/08 14:52:50;;;;;;;6.15;3.70;;;;;;;;;;5051527;28;20053;-58
2022/01/08 14:55:18;;;;;;;4.28;3.53;;;;;;;;;;5050759;28;20041;-58
2022/01/08 14:57:44;;;;;;;6.13;3.42;;;;;;;;;;5050565;28;20076;-58